sensor_id;sensor_type;location;lat;lon;timestamp;temperature;humidity
56103;DHT22;41970;48.774;9.280;2023-07-13T00:00:29;23.40;82.80
56103;DHT22;41970;48.774;9.280;2023-07-13T00:02:56;23.40;83.10
56103;DHT22;41970;48.774;9.280;2023-07-13T00:05:22;23.40;83.00
56103;DHT22;41970;48.774;9.280;2023-07-13T00:07:48;23.30;83.80
56103;DHT22;41970;48.774;9.280;2023-07-13T00:10:17;23.30;83.50
56103;DHT22;41970;48.774;9.280;2023-07-13T00:12:44;23.30;83.90
56103;DHT22;41970;48.774;9.280;2023-07-13T00:15:18;23.40;83.80
56103;DHT22;41970;48.774;9.280;2023-07-13T00:17:53;23.40;83.40
56103;DHT22;41970;48.774;9.280;2023-07-13T00:20:20;23.40;83.30
56103;DHT22;41970;48.774;9.280;2023-07-13T00:22:48;23.50;83.40
56103;DHT22;41970;48.774;9.280;2023-07-13T00:25:14;23.50;83.30
56103;DHT22;41970;48.774;9.280;2023-07-13T00:27:42;23.40;83.70
56103;DHT22;41970;48.774;9.280;2023-07-13T00:30:09;23.30;83.40
56103;DHT22;41970;48.774;9.280;2023-07-13T00:32:35;23.30;83.60
56103;DHT22;41970;48.774;9.280;2023-07-13T00:35:02;23.20;84.30
56103;DHT22;41970;48.774;9.280;2023-07-13T00:37:30;23.10;84.30
56103;DHT22;41970;48.774;9.280;2023-07-13T00:39:56;23.10;84.20
56103;DHT22;41970;48.774;9.280;2023-07-13T00:42:21;23.10;84.20
56103;DHT22;41970;48.774;9.280;2023-07-13T00:47:32;23.00;84.70
56103;DHT22;41970;48.774;9.280;2023-07-13T00:49:58;22.90;85.10
56103;DHT22;41970;48.774;9.280;2023-07-13T00:52:24;22.70;85.30
56103;DHT22;41970;48.774;9.280;2023-07-13T00:54:50;22.70;86.20
56103;DHT22;41970;48.774;9.280;2023-07-13T00:57:18;22.70;84.90
56103;DHT22;41970;48.774;9.280;2023-07-13T00:59:53;22.70;85.30
56103;DHT22;41970;48.774;9.280;2023-07-13T01:02:20;22.70;85.90
56103;DHT22;41970;48.774;9.280;2023-07-13T01:04:47;22.70;85.40
56103;DHT22;41970;48.774;9.280;2023-07-13T01:07:13;22.60;85.80
56103;DHT22;41970;48.774;9.280;2023-07-13T01:09:39;22.70;85.10
56103;DHT22;41970;48.774;9.280;2023-07-13T01:12:05;22.80;86.50
56103;DHT22;41970;48.774;9.280;2023-07-13T01:14:31;22.70;86.60
56103;DHT22;41970;48.774;9.280;2023-07-13T01:16:57;22.50;87.50
56103;DHT22;41970;48.774;9.280;2023-07-13T01:19:43;22.50;88.00
56103;DHT22;41970;48.774;9.280;2023-07-13T01:22:15;22.40;87.30
56103;DHT22;41970;48.774;9.280;2023-07-13T01:24:43;22.20;88.40
56103;DHT22;41970;48.774;9.280;2023-07-13T01:27:11;22.30;89.00
56103;DHT22;41970;48.774;9.280;2023-07-13T01:29:41;22.20;89.40
56103;DHT22;41970;48.774;9.280;2023-07-13T01:32:15;22.10;89.50
56103;DHT22;41970;48.774;9.280;2023-07-13T01:34:41;22.00;89.70
56103;DHT22;41970;48.774;9.280;2023-07-13T01:37:08;21.90;89.00
56103;DHT22;41970;48.774;9.280;2023-07-13T01:39:35;21.90;90.00
56103;DHT22;41970;48.774;9.280;2023-07-13T01:42:00;21.90;90.00
56103;DHT22;41970;48.774;9.280;2023-07-13T01:44:26;21.80;90.20
56103;DHT22;41970;48.774;9.280;2023-07-13T01:46:52;21.70;90.10
56103;DHT22;41970;48.774;9.280;2023-07-13T01:49:18;21.50;90.30
56103;DHT22;41970;48.774;9.280;2023-07-13T01:51:47;21.50;90.50
56103;DHT22;41970;48.774;9.280;2023-07-13T01:54:12;21.30;90.40
56103;DHT22;41970;48.774;9.280;2023-07-13T01:56:38;21.00;90.70
56103;DHT22;41970;48.774;9.280;2023-07-13T01:59:05;20.80;91.20
56103;DHT22;41970;48.774;9.280;2023-07-13T02:01:30;20.60;91.80
56103;DHT22;41970;48.774;9.280;2023-07-13T02:03:56;20.60;91.80
56103;DHT22;41970;48.774;9.280;2023-07-13T02:06:22;20.50;91.60
56103;DHT22;41970;48.774;9.280;2023-07-13T02:08:48;20.50;91.80
56103;DHT22;41970;48.774;9.280;2023-07-13T02:11:13;20.30;91.90
56103;DHT22;41970;48.774;9.280;2023-07-13T02:13:39;20.20;92.10
56103;DHT22;41970;48.774;9.280;2023-07-13T02:16:05;20.30;91.60
56103;DHT22;41970;48.774;9.280;2023-07-13T02:18:33;20.10;92.00
56103;DHT22;41970;48.774;9.280;2023-07-13T02:20:59;20.00;92.10
56103;DHT22;41970;48.774;9.280;2023-07-13T02:23:24;19.90;92.10
56103;DHT22;41970;48.774;9.280;2023-07-13T02:25:55;19.90;92.40
56103;DHT22;41970;48.774;9.280;2023-07-13T02:28:21;19.70;92.70
56103;DHT22;41970;48.774;9.280;2023-07-13T02:30:46;19.40;92.70
56103;DHT22;41970;48.774;9.280;2023-07-13T02:33:12;19.40;93.00
56103;DHT22;41970;48.774;9.280;2023-07-13T02:35:38;19.30;93.30
56103;DHT22;41970;48.774;9.280;2023-07-13T02:38:04;19.40;93.30
56103;DHT22;41970;48.774;9.280;2023-07-13T02:40:30;19.30;93.10
56103;DHT22;41970;48.774;9.280;2023-07-13T02:42:58;19.30;93.20
56103;DHT22;41970;48.774;9.280;2023-07-13T02:45:26;19.40;93.20
56103;DHT22;41970;48.774;9.280;2023-07-13T02:47:51;19.60;93.30
56103;DHT22;41970;48.774;9.280;2023-07-13T02:50:17;19.60;93.30
56103;DHT22;41970;48.774;9.280;2023-07-13T02:52:43;19.60;93.60
56103;DHT22;41970;48.774;9.280;2023-07-13T02:55:09;19.60;93.50
56103;DHT22;41970;48.774;9.280;2023-07-13T02:57:35;19.60;93.60
56103;DHT22;41970;48.774;9.280;2023-07-13T03:00:02;19.40;93.40
56103;DHT22;41970;48.774;9.280;2023-07-13T03:02:31;19.20;93.90
56103;DHT22;41970;48.774;9.280;2023-07-13T03:04:58;19.30;94.00
56103;DHT22;41970;48.774;9.280;2023-07-13T03:07:23;19.40;93.90
56103;DHT22;41970;48.774;9.280;2023-07-13T03:09:55;19.40;93.70
56103;DHT22;41970;48.774;9.280;2023-07-13T03:12:21;19.50;93.70
56103;DHT22;41970;48.774;9.280;2023-07-13T03:14:47;19.50;93.60
56103;DHT22;41970;48.774;9.280;2023-07-13T03:17:13;19.30;93.80
56103;DHT22;41970;48.774;9.280;2023-07-13T03:19:38;19.20;94.10
56103;DHT22;41970;48.774;9.280;2023-07-13T03:22:04;19.30;93.70
56103;DHT22;41970;48.774;9.280;2023-07-13T03:24:33;19.40;93.80
56103;DHT22;41970;48.774;9.280;2023-07-13T03:27:00;19.50;93.60
56103;DHT22;41970;48.774;9.280;2023-07-13T03:29:25;19.50;93.60
56103;DHT22;41970;48.774;9.280;2023-07-13T03:31:51;19.40;93.70
56103;DHT22;41970;48.774;9.280;2023-07-13T03:34:17;19.50;93.60
56103;DHT22;41970;48.774;9.280;2023-07-13T03:36:43;19.40;93.70
56103;DHT22;41970;48.774;9.280;2023-07-13T03:39:09;19.30;94.00
56103;DHT22;41970;48.774;9.280;2023-07-13T03:41:35;19.30;93.90
56103;DHT22;41970;48.774;9.280;2023-07-13T03:44:03;19.30;94.00
56103;DHT22;41970;48.774;9.280;2023-07-13T03:46:29;19.20;94.10
56103;DHT22;41970;48.774;9.280;2023-07-13T03:48:55;19.20;94.00
56103;DHT22;41970;48.774;9.280;2023-07-13T03:51:20;19.30;94.30
56103;DHT22;41970;48.774;9.280;2023-07-13T03:53:47;19.40;94.00
56103;DHT22;41970;48.774;9.280;2023-07-13T03:56:14;19.50;93.90
56103;DHT22;41970;48.774;9.280;2023-07-13T03:58:41;19.60;94.00
56103;DHT22;41970;48.774;9.280;2023-07-13T04:01:10;19.60;94.20
56103;DHT22;41970;48.774;9.280;2023-07-13T04:03:36;19.60;94.30
56103;DHT22;41970;48.774;9.280;2023-07-13T04:06:03;19.80;94.20
56103;DHT22;41970;48.774;9.280;2023-07-13T04:08:32;19.80;94.10
56103;DHT22;41970;48.774;9.280;2023-07-13T04:10:58;19.90;94.10
56103;DHT22;41970;48.774;9.280;2023-07-13T04:13:25;19.90;94.40
56103;DHT22;41970;48.774;9.280;2023-07-13T04:15:51;19.90;94.60
56103;DHT22;41970;48.774;9.280;2023-07-13T04:18:18;19.80;94.40
56103;DHT22;41970;48.774;9.280;2023-07-13T04:20:48;19.90;94.30
56103;DHT22;41970;48.774;9.280;2023-07-13T04:23:15;19.90;94.60
56103;DHT22;41970;48.774;9.280;2023-07-13T04:25:48;20.00;94.50
56103;DHT22;41970;48.774;9.280;2023-07-13T04:28:15;20.00;94.50
56103;DHT22;41970;48.774;9.280;2023-07-13T04:30:41;20.10;94.60
56103;DHT22;41970;48.774;9.280;2023-07-13T04:33:07;20.10;94.30
56103;DHT22;41970;48.774;9.280;2023-07-13T04:35:34;20.00;94.40
56103;DHT22;41970;48.774;9.280;2023-07-13T04:38:00;20.00;94.80
56103;DHT22;41970;48.774;9.280;2023-07-13T04:40:27;20.10;95.00
56103;DHT22;41970;48.774;9.280;2023-07-13T04:42:53;20.10;94.90
56103;DHT22;41970;48.774;9.280;2023-07-13T04:45:19;20.00;94.80
56103;DHT22;41970;48.774;9.280;2023-07-13T04:47:45;20.00;94.60
56103;DHT22;41970;48.774;9.280;2023-07-13T04:50:14;20.10;94.50
56103;DHT22;41970;48.774;9.280;2023-07-13T04:52:46;20.20;94.60
56103;DHT22;41970;48.774;9.280;2023-07-13T04:55:13;20.30;94.90
56103;DHT22;41970;48.774;9.280;2023-07-13T04:57:39;20.30;94.80
56103;DHT22;41970;48.774;9.280;2023-07-13T05:00:05;20.40;94.80
56103;DHT22;41970;48.774;9.280;2023-07-13T05:02:31;20.40;94.70
56103;DHT22;41970;48.774;9.280;2023-07-13T05:04:58;20.40;94.90
56103;DHT22;41970;48.774;9.280;2023-07-13T05:07:25;20.40;95.00
56103;DHT22;41970;48.774;9.280;2023-07-13T05:09:50;20.40;94.90
56103;DHT22;41970;48.774;9.280;2023-07-13T05:12:18;20.50;94.90
56103;DHT22;41970;48.774;9.280;2023-07-13T05:14:44;20.50;95.00
56103;DHT22;41970;48.774;9.280;2023-07-13T05:17:10;20.40;94.60
56103;DHT22;41970;48.774;9.280;2023-07-13T05:19:36;20.40;94.50
56103;DHT22;41970;48.774;9.280;2023-07-13T05:22:01;20.60;94.60
56103;DHT22;41970;48.774;9.280;2023-07-13T05:24:29;20.60;94.60
56103;DHT22;41970;48.774;9.280;2023-07-13T05:26:55;20.60;94.90
56103;DHT22;41970;48.774;9.280;2023-07-13T05:29:22;20.50;94.60
56103;DHT22;41970;48.774;9.280;2023-07-13T05:31:48;20.40;94.20
56103;DHT22;41970;48.774;9.280;2023-07-13T05:34:14;20.30;94.40
56103;DHT22;41970;48.774;9.280;2023-07-13T05:36:40;20.30;94.50
56103;DHT22;41970;48.774;9.280;2023-07-13T05:39:06;20.30;93.90
56103;DHT22;41970;48.774;9.280;2023-07-13T05:41:32;20.40;94.30
56103;DHT22;41970;48.774;9.280;2023-07-13T05:43:58;20.40;93.50
56103;DHT22;41970;48.774;9.280;2023-07-13T05:46:24;20.50;92.20
56103;DHT22;41970;48.774;9.280;2023-07-13T05:48:50;20.60;91.80
56103;DHT22;41970;48.774;9.280;2023-07-13T05:51:16;20.70;91.60
56103;DHT22;41970;48.774;9.280;2023-07-13T05:53:42;20.80;91.10
56103;DHT22;41970;48.774;9.280;2023-07-13T05:56:09;20.90;90.80
56103;DHT22;41970;48.774;9.280;2023-07-13T05:58:35;20.90;90.60
56103;DHT22;41970;48.774;9.280;2023-07-13T06:01:06;21.00;90.70
56103;DHT22;41970;48.774;9.280;2023-07-13T06:03:33;21.10;90.70
56103;DHT22;41970;48.774;9.280;2023-07-13T06:05:59;21.10;90.40
56103;DHT22;41970;48.774;9.280;2023-07-13T06:08:28;21.20;90.30
56103;DHT22;41970;48.774;9.280;2023-07-13T06:10:54;21.20;90.20
56103;DHT22;41970;48.774;9.280;2023-07-13T06:13:19;21.30;90.00
56103;DHT22;41970;48.774;9.280;2023-07-13T06:15:49;21.30;90.10
56103;DHT22;41970;48.774;9.280;2023-07-13T06:18:15;21.30;89.90
56103;DHT22;41970;48.774;9.280;2023-07-13T06:20:41;21.40;89.00
56103;DHT22;41970;48.774;9.280;2023-07-13T06:23:07;21.50;88.70
56103;DHT22;41970;48.774;9.280;2023-07-13T06:25:32;21.50;88.60
56103;DHT22;41970;48.774;9.280;2023-07-13T06:27:58;21.50;87.60
56103;DHT22;41970;48.774;9.280;2023-07-13T06:30:24;21.50;86.80
56103;DHT22;41970;48.774;9.280;2023-07-13T06:32:50;21.50;86.80
56103;DHT22;41970;48.774;9.280;2023-07-13T06:35:16;21.50;86.90
56103;DHT22;41970;48.774;9.280;2023-07-13T06:37:41;21.70;86.00
56103;DHT22;41970;48.774;9.280;2023-07-13T06:40:08;21.80;86.00
56103;DHT22;41970;48.774;9.280;2023-07-13T06:42:33;21.80;86.90
56103;DHT22;41970;48.774;9.280;2023-07-13T06:44:59;21.90;86.50
56103;DHT22;41970;48.774;9.280;2023-07-13T06:47:25;22.00;86.10
56103;DHT22;41970;48.774;9.280;2023-07-13T06:49:50;22.10;84.30
56103;DHT22;41970;48.774;9.280;2023-07-13T06:52:16;22.10;84.40
56103;DHT22;41970;48.774;9.280;2023-07-13T06:54:43;22.20;84.80
56103;DHT22;41970;48.774;9.280;2023-07-13T06:57:09;22.20;84.20
56103;DHT22;41970;48.774;9.280;2023-07-13T06:59:34;22.10;84.60
56103;DHT22;41970;48.774;9.280;2023-07-13T07:02:00;22.20;83.80
56103;DHT22;41970;48.774;9.280;2023-07-13T07:04:26;22.40;83.20
56103;DHT22;41970;48.774;9.280;2023-07-13T07:06:52;22.70;82.90
56103;DHT22;41970;48.774;9.280;2023-07-13T07:09:18;23.00;81.90
56103;DHT22;41970;48.774;9.280;2023-07-13T07:11:44;23.00;81.60
56103;DHT22;41970;48.774;9.280;2023-07-13T07:14:09;23.20;80.50
56103;DHT22;41970;48.774;9.280;2023-07-13T07:16:35;23.10;78.40
56103;DHT22;41970;48.774;9.280;2023-07-13T07:19:01;23.20;79.80
56103;DHT22;41970;48.774;9.280;2023-07-13T07:21:27;23.40;78.10
56103;DHT22;41970;48.774;9.280;2023-07-13T07:23:53;23.60;78.40
56103;DHT22;41970;48.774;9.280;2023-07-13T07:26:19;24.00;77.80
56103;DHT22;41970;48.774;9.280;2023-07-13T07:28:45;24.20;76.80
56103;DHT22;41970;48.774;9.280;2023-07-13T07:31:10;24.20;77.60
56103;DHT22;41970;48.774;9.280;2023-07-13T07:33:36;24.20;78.30
56103;DHT22;41970;48.774;9.280;2023-07-13T07:36:02;24.40;75.20
56103;DHT22;41970;48.774;9.280;2023-07-13T07:38:29;24.60;75.20
56103;DHT22;41970;48.774;9.280;2023-07-13T07:40:54;24.90;74.60
56103;DHT22;41970;48.774;9.280;2023-07-13T07:43:20;25.10;74.00
56103;DHT22;41970;48.774;9.280;2023-07-13T07:45:46;25.50;70.90
56103;DHT22;41970;48.774;9.280;2023-07-13T07:48:12;25.60;72.00
56103;DHT22;41970;48.774;9.280;2023-07-13T07:50:38;25.70;68.80
56103;DHT22;41970;48.774;9.280;2023-07-13T07:53:05;25.90;70.90
56103;DHT22;41970;48.774;9.280;2023-07-13T07:55:34;26.20;70.30
56103;DHT22;41970;48.774;9.280;2023-07-13T07:58:02;26.40;68.80
56103;DHT22;41970;48.774;9.280;2023-07-13T08:00:28;26.70;68.10
56103;DHT22;41970;48.774;9.280;2023-07-13T08:02:57;26.80;67.80
56103;DHT22;41970;48.774;9.280;2023-07-13T08:05:23;27.00;68.40
56103;DHT22;41970;48.774;9.280;2023-07-13T08:07:49;27.30;67.80
56103;DHT22;41970;48.774;9.280;2023-07-13T08:10:17;27.40;67.40
56103;DHT22;41970;48.774;9.280;2023-07-13T08:12:42;27.50;66.90
56103;DHT22;41970;48.774;9.280;2023-07-13T08:15:14;27.60;65.60
56103;DHT22;41970;48.774;9.280;2023-07-13T08:17:41;27.70;65.40
56103;DHT22;41970;48.774;9.280;2023-07-13T08:20:07;28.10;66.00
56103;DHT22;41970;48.774;9.280;2023-07-13T08:22:34;28.30;63.40
56103;DHT22;41970;48.774;9.280;2023-07-13T08:25:00;28.40;63.60
56103;DHT22;41970;48.774;9.280;2023-07-13T08:27:28;28.30;62.40
56103;DHT22;41970;48.774;9.280;2023-07-13T08:29:54;28.30;63.40
56103;DHT22;41970;48.774;9.280;2023-07-13T08:32:21;28.40;60.40
56103;DHT22;41970;48.774;9.280;2023-07-13T08:34:48;28.00;62.20
56103;DHT22;41970;48.774;9.280;2023-07-13T08:37:14;28.10;63.90
56103;DHT22;41970;48.774;9.280;2023-07-13T08:39:40;28.30;63.50
56103;DHT22;41970;48.774;9.280;2023-07-13T08:47:53;28.00;63.60
56103;DHT22;41970;48.774;9.280;2023-07-13T08:50:21;28.20;62.00
56103;DHT22;41970;48.774;9.280;2023-07-13T08:52:51;28.20;63.20
56103;DHT22;41970;48.774;9.280;2023-07-13T08:55:36;28.20;60.70
56103;DHT22;41970;48.774;9.280;2023-07-13T08:58:13;28.20;61.50
56103;DHT22;41970;48.774;9.280;2023-07-13T09:03:24;28.60;60.70
56103;DHT22;41970;48.774;9.280;2023-07-13T09:05:56;28.70;60.50
56103;DHT22;41970;48.774;9.280;2023-07-13T09:16:17;28.50;59.40
56103;DHT22;41970;48.774;9.280;2023-07-13T09:18:53;28.30;59.30
56103;DHT22;41970;48.774;9.280;2023-07-13T09:21:29;28.20;61.80
56103;DHT22;41970;48.774;9.280;2023-07-13T09:26:43;28.30;59.90
56103;DHT22;41970;48.774;9.280;2023-07-13T09:29:15;27.90;61.20
56103;DHT22;41970;48.774;9.280;2023-07-13T09:31:49;27.70;62.80
56103;DHT22;41970;48.774;9.280;2023-07-13T09:34:16;27.60;60.90
56103;DHT22;41970;48.774;9.280;2023-07-13T09:36:42;27.50;63.10
56103;DHT22;41970;48.774;9.280;2023-07-13T09:39:27;27.30;63.10
56103;DHT22;41970;48.774;9.280;2023-07-13T09:42:00;27.40;62.00
56103;DHT22;41970;48.774;9.280;2023-07-13T09:44:37;27.60;61.40
56103;DHT22;41970;48.774;9.280;2023-07-13T09:47:15;27.70;62.40
56103;DHT22;41970;48.774;9.280;2023-07-13T09:49:41;27.80;61.60
56103;DHT22;41970;48.774;9.280;2023-07-13T09:52:12;27.70;61.30
56103;DHT22;41970;48.774;9.280;2023-07-13T09:54:41;27.60;61.60
56103;DHT22;41970;48.774;9.280;2023-07-13T09:57:16;27.60;61.10
56103;DHT22;41970;48.774;9.280;2023-07-13T09:59:48;27.70;62.80
56103;DHT22;41970;48.774;9.280;2023-07-13T10:05:02;27.50;61.40
56103;DHT22;41970;48.774;9.280;2023-07-13T10:07:30;27.30;62.60
56103;DHT22;41970;48.774;9.280;2023-07-13T10:09:58;27.10;61.50
56103;DHT22;41970;48.774;9.280;2023-07-13T10:12:27;27.10;61.90
56103;DHT22;41970;48.774;9.280;2023-07-13T10:14:58;27.10;61.00
56103;DHT22;41970;48.774;9.280;2023-07-13T10:17:34;27.20;61.50
56103;DHT22;41970;48.774;9.280;2023-07-13T10:20:03;27.20;60.50
56103;DHT22;41970;48.774;9.280;2023-07-13T10:23:02;27.10;60.60
56103;DHT22;41970;48.774;9.280;2023-07-13T10:25:31;27.10;61.60
56103;DHT22;41970;48.774;9.280;2023-07-13T10:28:31;27.10;61.40
56103;DHT22;41970;48.774;9.280;2023-07-13T10:31:01;27.20;61.20
56103;DHT22;41970;48.774;9.280;2023-07-13T10:33:28;27.40;60.50
56103;DHT22;41970;48.774;9.280;2023-07-13T10:36:13;27.30;61.20
56103;DHT22;41970;48.774;9.280;2023-07-13T10:38:40;27.30;63.80
56103;DHT22;41970;48.774;9.280;2023-07-13T10:41:11;27.20;62.40
56103;DHT22;41970;48.774;9.280;2023-07-13T10:43:44;27.10;62.30
56103;DHT22;41970;48.774;9.280;2023-07-13T10:46:13;26.80;60.90
56103;DHT22;41970;48.774;9.280;2023-07-13T10:48:40;26.80;62.80
56103;DHT22;41970;48.774;9.280;2023-07-13T10:51:10;26.80;63.50
56103;DHT22;41970;48.774;9.280;2023-07-13T10:53:38;27.00;63.20
56103;DHT22;41970;48.774;9.280;2023-07-13T10:58:41;26.90;61.90
56103;DHT22;41970;48.774;9.280;2023-07-13T11:01:11;26.80;61.50
56103;DHT22;41970;48.774;9.280;2023-07-13T11:03:50;26.70;62.30
56103;DHT22;41970;48.774;9.280;2023-07-13T11:06:38;26.80;63.40
56103;DHT22;41970;48.774;9.280;2023-07-13T11:15:00;26.90;62.50
56103;DHT22;41970;48.774;9.280;2023-07-13T11:20:23;27.10;60.90
56103;DHT22;41970;48.774;9.280;2023-07-13T11:25:38;27.20;62.30
56103;DHT22;41970;48.774;9.280;2023-07-13T11:33:14;27.10;61.00
56103;DHT22;41970;48.774;9.280;2023-07-13T11:36:00;26.90;60.80
56103;DHT22;41970;48.774;9.280;2023-07-13T11:38:41;27.00;62.00
56103;DHT22;41970;48.774;9.280;2023-07-13T11:41:22;27.00;64.10
56103;DHT22;41970;48.774;9.280;2023-07-13T11:43:51;26.90;62.50
56103;DHT22;41970;48.774;9.280;2023-07-13T11:46:21;27.00;64.20
56103;DHT22;41970;48.774;9.280;2023-07-13T11:48:49;26.90;63.60
56103;DHT22;41970;48.774;9.280;2023-07-13T11:51:28;26.90;61.90
56103;DHT22;41970;48.774;9.280;2023-07-13T11:53:58;26.70;60.50
56103;DHT22;41970;48.774;9.280;2023-07-13T11:56:25;26.70;62.90
56103;DHT22;41970;48.774;9.280;2023-07-13T11:58:56;26.80;61.70
56103;DHT22;41970;48.774;9.280;2023-07-13T12:01:31;26.60;62.20
56103;DHT22;41970;48.774;9.280;2023-07-13T12:04:03;26.80;61.40
56103;DHT22;41970;48.774;9.280;2023-07-13T12:06:32;27.00;62.10
56103;DHT22;41970;48.774;9.280;2023-07-13T12:08:59;27.00;63.20
56103;DHT22;41970;48.774;9.280;2023-07-13T12:11:26;26.90;61.70
56103;DHT22;41970;48.774;9.280;2023-07-13T12:13:53;26.90;61.50
56103;DHT22;41970;48.774;9.280;2023-07-13T12:16:30;26.90;60.90
56103;DHT22;41970;48.774;9.280;2023-07-13T12:18:59;26.80;61.40
56103;DHT22;41970;48.774;9.280;2023-07-13T12:21:38;26.80;60.90
56103;DHT22;41970;48.774;9.280;2023-07-13T12:24:05;26.70;61.80
56103;DHT22;41970;48.774;9.280;2023-07-13T12:26:38;26.80;61.70
56103;DHT22;41970;48.774;9.280;2023-07-13T12:29:06;26.90;63.00
56103;DHT22;41970;48.774;9.280;2023-07-13T12:31:36;26.90;62.10
56103;DHT22;41970;48.774;9.280;2023-07-13T12:34:15;26.90;61.10
56103;DHT22;41970;48.774;9.280;2023-07-13T12:36:48;27.00;60.60
56103;DHT22;41970;48.774;9.280;2023-07-13T12:41:51;27.30;61.30
56103;DHT22;41970;48.774;9.280;2023-07-13T12:44:21;27.40;60.60
56103;DHT22;41970;48.774;9.280;2023-07-13T12:46:58;27.40;61.40
56103;DHT22;41970;48.774;9.280;2023-07-13T12:49:27;27.30;60.30
56103;DHT22;41970;48.774;9.280;2023-07-13T12:51:59;27.40;60.20
56103;DHT22;41970;48.774;9.280;2023-07-13T12:54:26;27.30;59.90
56103;DHT22;41970;48.774;9.280;2023-07-13T12:56:53;27.30;59.20
56103;DHT22;41970;48.774;9.280;2023-07-13T12:59:22;27.40;59.40
56103;DHT22;41970;48.774;9.280;2023-07-13T13:01:49;27.30;58.90
56103;DHT22;41970;48.774;9.280;2023-07-13T13:04:15;27.00;61.70
56103;DHT22;41970;48.774;9.280;2023-07-13T13:06:41;27.00;61.10
56103;DHT22;41970;48.774;9.280;2023-07-13T13:09:14;27.00;60.20
56103;DHT22;41970;48.774;9.280;2023-07-13T13:11:40;27.10;59.00
56103;DHT22;41970;48.774;9.280;2023-07-13T13:14:06;27.20;58.90
56103;DHT22;41970;48.774;9.280;2023-07-13T13:16:43;27.20;59.10
56103;DHT22;41970;48.774;9.280;2023-07-13T13:19:14;27.40;61.90
56103;DHT22;41970;48.774;9.280;2023-07-13T13:21:41;27.40;60.30
56103;DHT22;41970;48.774;9.280;2023-07-13T13:24:16;27.50;59.10
56103;DHT22;41970;48.774;9.280;2023-07-13T13:26:43;27.20;58.00
56103;DHT22;41970;48.774;9.280;2023-07-13T13:29:16;27.20;59.10
56103;DHT22;41970;48.774;9.280;2023-07-13T13:31:43;27.20;58.70
56103;DHT22;41970;48.774;9.280;2023-07-13T13:34:15;27.30;58.80
56103;DHT22;41970;48.774;9.280;2023-07-13T13:36:42;27.30;58.70
56103;DHT22;41970;48.774;9.280;2023-07-13T13:39:21;27.30;57.50
56103;DHT22;41970;48.774;9.280;2023-07-13T13:41:48;27.40;58.50
56103;DHT22;41970;48.774;9.280;2023-07-13T13:44:16;27.50;58.90
56103;DHT22;41970;48.774;9.280;2023-07-13T13:46:44;27.60;58.30
56103;DHT22;41970;48.774;9.280;2023-07-13T13:49:16;27.70;57.70
56103;DHT22;41970;48.774;9.280;2023-07-13T13:51:43;27.60;56.90
56103;DHT22;41970;48.774;9.280;2023-07-13T13:54:16;27.50;59.10
56103;DHT22;41970;48.774;9.280;2023-07-13T13:56:50;27.50;57.60
56103;DHT22;41970;48.774;9.280;2023-07-13T13:59:16;27.60;58.70
56103;DHT22;41970;48.774;9.280;2023-07-13T14:01:46;27.60;57.40
56103;DHT22;41970;48.774;9.280;2023-07-13T14:04:17;27.80;59.20
56103;DHT22;41970;48.774;9.280;2023-07-13T14:06:43;27.70;57.60
56103;DHT22;41970;48.774;9.280;2023-07-13T14:09:14;27.90;56.30
56103;DHT22;41970;48.774;9.280;2023-07-13T14:11:41;27.90;58.20
56103;DHT22;41970;48.774;9.280;2023-07-13T14:14:21;28.00;57.10
56103;DHT22;41970;48.774;9.280;2023-07-13T14:16:47;27.90;57.60
56103;DHT22;41970;48.774;9.280;2023-07-13T14:19:19;27.80;57.50
56103;DHT22;41970;48.774;9.280;2023-07-13T14:21:45;27.50;58.20
56103;DHT22;41970;48.774;9.280;2023-07-13T14:24:13;27.60;57.50
56103;DHT22;41970;48.774;9.280;2023-07-13T14:26:40;27.70;58.00
56103;DHT22;41970;48.774;9.280;2023-07-13T14:29:18;27.80;57.10
56103;DHT22;41970;48.774;9.280;2023-07-13T14:31:45;27.90;57.70
56103;DHT22;41970;48.774;9.280;2023-07-13T14:34:11;27.90;56.10
56103;DHT22;41970;48.774;9.280;2023-07-13T14:36:43;27.90;56.60
56103;DHT22;41970;48.774;9.280;2023-07-13T14:41:42;27.90;57.60
56103;DHT22;41970;48.774;9.280;2023-07-13T14:44:14;27.80;57.10
56103;DHT22;41970;48.774;9.280;2023-07-13T14:46:41;27.80;57.20
56103;DHT22;41970;48.774;9.280;2023-07-13T14:49:31;27.70;57.00
56103;DHT22;41970;48.774;9.280;2023-07-13T14:51:59;27.80;57.00
56103;DHT22;41970;48.774;9.280;2023-07-13T14:54:25;27.70;57.40
56103;DHT22;41970;48.774;9.280;2023-07-13T14:56:51;27.60;56.60
56103;DHT22;41970;48.774;9.280;2023-07-13T14:59:17;27.60;56.70
56103;DHT22;41970;48.774;9.280;2023-07-13T15:01:46;27.60;56.70
56103;DHT22;41970;48.774;9.280;2023-07-13T15:04:12;27.60;56.30
56103;DHT22;41970;48.774;9.280;2023-07-13T15:07:05;27.60;57.00
56103;DHT22;41970;48.774;9.280;2023-07-13T15:09:31;27.50;58.00
56103;DHT22;41970;48.774;9.280;2023-07-13T15:11:57;27.40;57.30
56103;DHT22;41970;48.774;9.280;2023-07-13T15:14:23;27.30;59.20
56103;DHT22;41970;48.774;9.280;2023-07-13T15:16:53;27.30;58.10
56103;DHT22;41970;48.774;9.280;2023-07-13T15:19:20;27.20;58.10
56103;DHT22;41970;48.774;9.280;2023-07-13T15:21:47;27.30;58.20
56103;DHT22;41970;48.774;9.280;2023-07-13T15:24:13;27.40;59.00
56103;DHT22;41970;48.774;9.280;2023-07-13T15:26:39;27.40;59.30
56103;DHT22;41970;48.774;9.280;2023-07-13T15:29:05;27.50;58.80
56103;DHT22;41970;48.774;9.280;2023-07-13T15:31:32;27.50;58.60
56103;DHT22;41970;48.774;9.280;2023-07-13T15:33:59;27.40;59.50
56103;DHT22;41970;48.774;9.280;2023-07-13T15:36:26;27.40;60.90
56103;DHT22;41970;48.774;9.280;2023-07-13T15:38:54;27.40;58.40
56103;DHT22;41970;48.774;9.280;2023-07-13T15:41:21;27.50;58.70
56103;DHT22;41970;48.774;9.280;2023-07-13T15:43:49;27.60;57.80
56103;DHT22;41970;48.774;9.280;2023-07-13T15:46:20;27.60;57.80
56103;DHT22;41970;48.774;9.280;2023-07-13T15:48:51;27.60;57.20
56103;DHT22;41970;48.774;9.280;2023-07-13T15:51:25;27.60;57.50
56103;DHT22;41970;48.774;9.280;2023-07-13T15:53:58;27.50;57.90
56103;DHT22;41970;48.774;9.280;2023-07-13T15:56:27;27.40;58.90
56103;DHT22;41970;48.774;9.280;2023-07-13T15:58:54;27.30;57.70
56103;DHT22;41970;48.774;9.280;2023-07-13T16:01:22;27.40;57.40
56103;DHT22;41970;48.774;9.280;2023-07-13T16:03:48;27.40;58.70
56103;DHT22;41970;48.774;9.280;2023-07-13T16:06:23;27.50;57.20
56103;DHT22;41970;48.774;9.280;2023-07-13T16:08:51;27.50;58.80
56103;DHT22;41970;48.774;9.280;2023-07-13T16:11:20;27.60;57.40
56103;DHT22;41970;48.774;9.280;2023-07-13T16:13:47;27.50;56.70
56103;DHT22;41970;48.774;9.280;2023-07-13T16:16:14;27.50;56.80
56103;DHT22;41970;48.774;9.280;2023-07-13T16:18:42;27.50;56.20
56103;DHT22;41970;48.774;9.280;2023-07-13T16:21:12;27.50;56.70
56103;DHT22;41970;48.774;9.280;2023-07-13T16:23:39;27.40;57.50
56103;DHT22;41970;48.774;9.280;2023-07-13T16:26:23;27.40;57.90